createdAt,value
2023-04-02T00:00:20.672Z,10.93
2023-04-02T00:02:58.697Z,10.90
2023-04-02T00:05:46.647Z,10.96
2023-04-02T00:08:25.446Z,10.92
2023-04-02T00:10:55.025Z,10.90
2023-04-02T00:13:34.395Z,10.96
2023-04-02T00:16:05.515Z,10.92
2023-04-02T00:18:35.866Z,10.97
2023-04-02T00:21:14.312Z,10.97
2023-04-02T00:23:43.305Z,10.90
2023-04-02T00:26:29.712Z,10.93
2023-04-02T00:28:59.493Z,10.92
2023-04-02T00:31:27.384Z,10.95
2023-04-02T00:33:55.645Z,10.96
2023-04-02T00:36:26.098Z,11.03
2023-04-02T00:38:57.732Z,10.96
2023-04-02T00:41:29.542Z,10.92
2023-04-02T00:44:23.432Z,10.90
2023-04-02T00:46:52.316Z,10.93
2023-04-02T00:49:26.982Z,10.96
2023-04-02T00:51:58.866Z,11.00
2023-04-02T00:54:32.509Z,11.04
2023-04-02T00:57:00.727Z,11.03
2023-04-02T00:59:32.796Z,11.06
2023-04-02T01:02:24.063Z,11.09
2023-04-02T01:04:54.307Z,11.12
2023-04-02T01:07:42.634Z,11.14
2023-04-02T01:10:33.860Z,11.07
2023-04-02T01:13:19.904Z,11.00
2023-04-02T01:15:56.683Z,11.00
2023-04-02T01:18:45.712Z,11.06
2023-04-02T01:21:41.217Z,11.02
2023-04-02T01:24:11.766Z,10.99
2023-04-02T01:26:58.124Z,11.09
2023-04-02T01:29:31.015Z,11.06
2023-04-02T01:32:05.229Z,11.06
2023-04-02T01:34:34.730Z,11.13
2023-04-02T01:37:32.653Z,11.24
2023-04-02T01:40:32.994Z,11.35
2023-04-02T01:43:16.139Z,11.38
2023-04-02T01:45:44.848Z,11.38
2023-04-02T01:48:17.404Z,11.45
2023-04-02T01:50:47.707Z,11.57
2023-04-02T01:53:17.732Z,11.60
2023-04-02T01:55:48.221Z,11.65
2023-04-02T01:58:20.338Z,11.70
2023-04-02T02:00:55.808Z,11.67
2023-04-02T02:03:24.768Z,11.67
2023-04-02T02:05:52.374Z,11.77
2023-04-02T02:08:33.480Z,11.88
2023-04-02T02:11:02.190Z,11.88
2023-04-02T02:13:53.103Z,11.99
2023-04-02T02:16:26.017Z,12.04
2023-04-02T02:18:57.440Z,12.05
2023-04-02T02:21:38.112Z,12.05
2023-04-02T02:24:18.805Z,12.11
2023-04-02T02:26:54.784Z,12.12
2023-04-02T02:29:26.193Z,12.05
2023-04-02T02:31:58.134Z,12.04
2023-04-02T02:34:34.140Z,12.06
2023-04-02T02:37:10.346Z,12.09
2023-04-02T02:39:43.261Z,12.12
2023-04-02T02:42:17.166Z,12.09
2023-04-02T02:44:49.286Z,12.09
2023-04-02T02:47:23.450Z,12.05
2023-04-02T02:49:56.455Z,12.01
2023-04-02T02:52:28.483Z,12.04
2023-04-02T02:55:08.322Z,12.08
2023-04-02T02:57:49.548Z,12.06
2023-04-02T03:00:18.835Z,12.05
2023-04-02T03:02:48.772Z,12.11
2023-04-02T03:05:23.135Z,12.05
2023-04-02T03:07:56.335Z,12.13
2023-04-02T03:10:37.998Z,12.19
2023-04-02T03:13:18.656Z,12.23
2023-04-02T03:15:57.366Z,12.23
2023-04-02T03:18:38.122Z,12.29
2023-04-02T03:21:22.802Z,12.28
2023-04-02T03:23:56.344Z,12.28
2023-04-02T03:26:29.667Z,12.13
2023-04-02T03:29:04.856Z,12.25
2023-04-02T03:31:37.936Z,12.33
2023-04-02T03:34:15.882Z,12.39
2023-04-02T03:36:54.545Z,12.43
2023-04-02T03:39:31.497Z,12.42
2023-04-02T03:42:07.493Z,12.43
2023-04-02T03:44:44.208Z,12.30
2023-04-02T03:47:19.659Z,12.29
2023-04-02T03:50:03.457Z,12.28
2023-04-02T03:52:33.695Z,12.28
2023-04-02T03:55:12.280Z,12.33
2023-04-02T03:57:51.467Z,12.33
2023-04-02T04:00:29.597Z,12.37
2023-04-02T04:03:05.338Z,12.39
2023-04-02T04:05:38.792Z,12.39
2023-04-02T04:08:15.210Z,12.37
2023-04-02T04:10:43.745Z,12.33
2023-04-02T04:13:15.974Z,12.37
2023-04-02T04:15:52.900Z,12.43
2023-04-02T04:18:31.496Z,12.39
2023-04-02T04:21:03.920Z,12.45
2023-04-02T04:23:41.041Z,12.40
2023-04-02T04:26:21.082Z,12.46
2023-04-02T04:29:02.039Z,12.49
2023-04-02T04:31:37.891Z,12.54
2023-04-02T04:34:13.561Z,12.64
2023-04-02T04:36:47.619Z,12.60
2023-04-02T04:39:23.557Z,12.60
2023-04-02T04:41:54.969Z,12.61
2023-04-02T04:44:24.572Z,12.57
2023-04-02T04:47:02.076Z,12.59
2023-04-02T04:49:37.492Z,12.68
2023-04-02T04:52:16.657Z,12.70
2023-04-02T04:54:47.355Z,12.70
2023-04-02T04:57:35.388Z,12.83
2023-04-02T05:00:28.291Z,12.83
2023-04-02T05:03:07.230Z,12.81
2023-04-02T05:05:40.294Z,12.79
2023-04-02T05:08:21.725Z,12.81
2023-04-02T05:10:56.225Z,12.77
2023-04-02T05:13:33.765Z,12.80
2023-04-02T05:16:13.923Z,12.76
2023-04-02T05:18:46.897Z,12.76
2023-04-02T05:21:22.886Z,12.66
2023-04-02T05:24:04.682Z,12.46
2023-04-02T05:26:40.364Z,12.29
2023-04-02T05:29:15.491Z,12.18
2023-04-02T05:31:54.011Z,12.29
2023-04-02T05:34:27.309Z,12.33
2023-04-02T05:36:55.978Z,12.37
2023-04-02T05:39:27.675Z,12.50
2023-04-02T05:42:07.111Z,12.64
2023-04-02T05:45:03.361Z,12.77
2023-04-02T05:47:33.346Z,12.90
2023-04-02T05:50:26.485Z,12.97
2023-04-02T05:53:02.779Z,12.94
2023-04-02T05:55:40.729Z,12.97
2023-04-02T05:58:35.382Z,13.01
2023-04-02T06:01:19.554Z,12.98
2023-04-02T06:03:59.169Z,13.08
2023-04-02T06:07:00.709Z,13.19
2023-04-02T06:09:39.752Z,13.22
2023-04-02T06:12:22.571Z,13.35
2023-04-02T06:14:50.221Z,13.39
2023-04-02T06:17:20.573Z,13.54
2023-04-02T06:19:49.997Z,13.62
2023-04-02T06:22:26.927Z,13.78
2023-04-02T06:25:03.632Z,13.82
2023-04-02T06:27:43.017Z,13.83
2023-04-02T06:30:21.301Z,13.87
2023-04-02T06:32:52.374Z,13.93
2023-04-02T06:35:20.891Z,14.03
2023-04-02T06:38:02.881Z,14.05
2023-04-02T06:40:42.360Z,13.70
2023-04-02T06:43:29.139Z,13.79
2023-04-02T06:46:09.934Z,13.76
2023-04-02T06:49:09.680Z,13.62
2023-04-02T06:51:40.791Z,13.44
2023-04-02T06:54:13.882Z,13.44
2023-04-02T06:56:45.955Z,13.55
2023-04-02T06:59:19.717Z,13.66
2023-04-02T07:01:51.372Z,13.76
2023-04-02T07:04:21.550Z,13.69
2023-04-02T07:06:51.220Z,13.86
2023-04-02T07:09:19.338Z,14.14
2023-04-02T07:11:50.760Z,14.44
2023-04-02T07:14:20.333Z,14.61
2023-04-02T07:16:47.622Z,14.77
2023-04-02T07:19:20.550Z,15.12
2023-04-02T07:21:49.602Z,15.61
2023-04-02T07:24:17.825Z,15.97
2023-04-02T07:26:45.177Z,16.31
2023-04-02T07:29:16.875Z,16.66
2023-04-02T07:31:45.701Z,16.86
2023-04-02T07:34:12.844Z,17.10
2023-04-02T07:36:39.947Z,17.36
2023-04-02T07:39:09.230Z,17.57
2023-04-02T07:41:52.220Z,17.48
2023-04-02T07:44:19.523Z,17.17
2023-04-02T07:46:48.321Z,17.07
2023-04-02T07:49:15.754Z,17.19
2023-04-02T07:51:43.582Z,17.22
2023-04-02T07:54:13.113Z,17.30
2023-04-02T07:56:40.492Z,17.67
2023-04-02T07:59:07.626Z,18.04
2023-04-02T08:01:34.665Z,18.09
2023-04-02T08:04:04.983Z,17.75
2023-04-02T08:06:31.956Z,17.64
2023-04-02T08:08:59.596Z,17.84
2023-04-02T08:11:26.524Z,17.88
2023-04-02T08:13:53.879Z,17.81
2023-04-02T08:16:20.774Z,17.82
2023-04-02T08:18:47.799Z,17.79
2023-04-02T08:21:16.817Z,17.86
2023-04-02T08:23:45.048Z,18.08
2023-04-02T08:26:18.033Z,18.12
2023-04-02T08:28:45.174Z,18.13
2023-04-02T08:31:14.446Z,18.18
2023-04-02T08:33:41.467Z,18.02
2023-04-02T08:36:18.234Z,18.10
2023-04-02T08:38:45.936Z,18.08
2023-04-02T08:41:21.756Z,18.28
2023-04-02T08:44:11.413Z,18.67
2023-04-02T08:46:48.186Z,19.00
2023-04-02T08:49:22.014Z,19.22
2023-04-02T08:51:50.755Z,19.48
2023-04-02T08:54:28.136Z,19.75
2023-04-02T08:57:01.749Z,19.85
2023-04-02T08:59:34.432Z,19.99
2023-04-02T09:02:27.466Z,19.93
2023-04-02T09:04:57.184Z,19.57
2023-04-02T09:07:26.474Z,19.41
2023-04-02T09:09:53.416Z,19.28
2023-04-02T09:12:25.717Z,19.44
2023-04-02T09:15:08.356Z,19.76
2023-04-02T09:17:50.671Z,20.09
2023-04-02T09:20:23.615Z,20.48
2023-04-02T09:22:53.216Z,20.78
2023-04-02T09:25:23.865Z,20.75
2023-04-02T09:27:54.149Z,20.63
2023-04-02T09:30:39.725Z,20.60
2023-04-02T09:33:07.450Z,20.57
2023-04-02T09:35:36.763Z,20.47
2023-04-02T09:38:24.356Z,20.40
2023-04-02T09:41:00.597Z,20.29
2023-04-02T09:43:30.370Z,20.33
2023-04-02T09:46:01.032Z,20.37
2023-04-02T09:48:31.830Z,20.43
2023-04-02T09:51:12.936Z,20.51
2023-04-02T09:53:44.149Z,20.82
2023-04-02T09:56:16.285Z,21.01
2023-04-02T09:58:45.704Z,21.23
2023-04-02T10:01:31.043Z,21.56
2023-04-02T10:03:58.344Z,21.76
2023-04-02T10:06:27.404Z,21.92
2023-04-02T10:08:55.934Z,21.92
2023-04-02T10:11:36.633Z,21.86
2023-04-02T10:14:17.854Z,21.97
2023-04-02T10:16:51.732Z,21.97
2023-04-02T10:19:28.389Z,22.28
2023-04-02T10:21:58.513Z,22.69
2023-04-02T10:24:28.809Z,22.76
2023-04-02T10:27:13.563Z,22.83
2023-04-02T10:30:09.965Z,22.99
2023-04-02T10:32:44.433Z,23.06
2023-04-02T10:35:24.219Z,23.12
2023-04-02T10:38:27.457Z,23.19
2023-04-02T10:41:02.088Z,23.07
2023-04-02T10:44:09.142Z,22.96
2023-04-02T10:46:57.422Z,22.56
2023-04-02T10:49:38.038Z,22.40
2023-04-02T10:52:10.684Z,22.40
2023-04-02T10:54:49.761Z,22.69
2023-04-02T10:57:36.705Z,23.12
2023-04-02T11:00:18.362Z,23.24
2023-04-02T11:02:54.620Z,23.42
2023-04-02T11:05:32.363Z,23.70
2023-04-02T11:08:06.467Z,23.85
2023-04-02T11:10:40.078Z,24.05
2023-04-02T11:13:20.118Z,24.04
2023-04-02T11:15:47.385Z,24.00
2023-04-02T11:18:28.302Z,24.21
2023-04-02T11:21:04.043Z,24.24
2023-04-02T11:23:56.871Z,24.69
2023-04-02T11:26:36.065Z,24.86
2023-04-02T11:29:22.615Z,24.97
2023-04-02T11:32:12.046Z,25.24
2023-04-02T11:35:24.237Z,25.47
2023-04-02T11:37:51.548Z,24.97
2023-04-02T11:40:46.031Z,24.83
2023-04-02T11:44:01.883Z,25.03
2023-04-02T11:46:51.294Z,25.06
2023-04-02T11:49:40.107Z,25.14
2023-04-02T11:52:24.654Z,25.30
2023-04-02T11:55:23.538Z,25.47
2023-04-02T11:58:45.596Z,25.78
2023-04-02T12:01:55.784Z,25.59
2023-04-02T12:04:58.466Z,25.48
2023-04-02T12:08:10.849Z,25.72
2023-04-02T12:10:58.338Z,25.61
2023-04-02T12:13:53.814Z,24.97
2023-04-02T12:16:23.001Z,24.51
2023-04-02T12:18:52.858Z,24.52
2023-04-02T12:21:25.927Z,24.80
2023-04-02T12:23:57.587Z,24.96
2023-04-02T12:26:33.463Z,25.10
2023-04-02T12:29:26.431Z,25.23
2023-04-02T12:31:55.786Z,25.52
2023-04-02T12:34:25.512Z,25.62
2023-04-02T12:36:58.277Z,25.72
2023-04-02T12:39:28.074Z,25.81
2023-04-02T12:41:56.817Z,25.82
2023-04-02T12:44:27.431Z,25.74
2023-04-02T12:46:57.140Z,25.47
2023-04-02T12:49:35.434Z,25.38
2023-04-02T12:52:07.170Z,25.30
2023-04-02T12:54:44.044Z,25.27
2023-04-02T12:57:39.497Z,25.37
2023-04-02T13:00:43.599Z,25.38
2023-04-02T13:03:20.572Z,25.44
2023-04-02T13:05:53.780Z,25.62
2023-04-02T13:08:26.091Z,25.85
2023-04-02T13:10:57.751Z,25.89
2023-04-02T13:13:35.555Z,25.77
2023-04-02T13:16:26.763Z,25.67
2023-04-02T13:19:20.496Z,25.57
2023-04-02T13:21:47.527Z,25.40
2023-04-02T13:24:21.209Z,25.42
2023-04-02T13:26:49.439Z,25.51
2023-04-02T13:29:24.739Z,25.62
2023-04-02T13:31:55.295Z,25.54
2023-04-02T13:34:22.549Z,25.33
2023-04-02T13:36:49.651Z,25.13
2023-04-02T13:39:17.344Z,24.67
2023-04-02T13:41:49.097Z,24.35
2023-04-02T13:44:24.373Z,24.08
2023-04-02T13:46:53.353Z,23.82
2023-04-02T13:49:21.580Z,23.71
2023-04-02T13:51:51.503Z,23.79
2023-04-02T13:54:26.008Z,23.79
2023-04-02T13:56:55.949Z,23.61
2023-04-02T13:59:24.232Z,23.50
2023-04-02T14:01:56.117Z,23.54
2023-04-02T14:04:28.595Z,23.60
2023-04-02T14:07:34.586Z,23.73
2023-04-02T14:10:20.048Z,23.66
2023-04-02T14:13:09.796Z,23.57
2023-04-02T14:15:53.059Z,23.39
2023-04-02T14:18:54.759Z,23.24
2023-04-02T14:21:38.299Z,22.96
2023-04-02T14:24:18.760Z,22.91
2023-04-02T14:27:04.806Z,22.99
2023-04-02T14:29:44.286Z,23.03
2023-04-02T14:32:20.853Z,22.69
2023-04-02T14:34:58.102Z,22.42
2023-04-02T14:37:39.336Z,22.28
2023-04-02T14:40:19.065Z,22.27
2023-04-02T14:42:57.324Z,22.35
2023-04-02T14:45:46.714Z,22.41
2023-04-02T14:48:40.601Z,22.34
2023-04-02T14:51:17.375Z,22.28
2023-04-02T14:53:58.372Z,22.38
2023-04-02T14:56:25.934Z,22.48
2023-04-02T14:59:05.753Z,22.44
2023-04-02T15:01:43.278Z,22.33
2023-04-02T15:04:19.316Z,22.42
2023-04-02T15:06:52.341Z,22.55
2023-04-02T15:09:28.442Z,22.31
2023-04-02T15:12:01.645Z,22.13
2023-04-02T15:14:35.226Z,21.69
2023-04-02T15:17:04.006Z,21.29
2023-04-02T15:19:32.367Z,21.16
2023-04-02T15:22:19.487Z,21.03
2023-04-02T15:24:59.312Z,20.78
2023-04-02T15:27:53.954Z,20.60
2023-04-02T15:30:27.568Z,20.16
2023-04-02T15:33:26.878Z,19.78
2023-04-02T15:36:05.766Z,19.51
2023-04-02T15:38:42.087Z,19.25
2023-04-02T15:41:20.325Z,19.11
2023-04-02T15:44:01.476Z,19.07
2023-04-02T15:46:41.486Z,18.88
2023-04-02T15:49:37.420Z,18.93
2023-04-02T15:52:12.400Z,18.96
2023-04-02T15:55:03.268Z,19.22
2023-04-02T15:58:02.134Z,19.41
2023-04-02T16:00:31.428Z,19.11
2023-04-02T16:03:33.371Z,18.87
2023-04-02T16:06:26.925Z,18.70
2023-04-02T16:09:17.365Z,18.70
2023-04-02T16:11:44.516Z,18.74
2023-04-02T16:14:24.907Z,18.78
2023-04-02T16:16:57.785Z,18.47
2023-04-02T16:19:33.127Z,18.35
2023-04-02T16:22:11.147Z,18.22
2023-04-02T16:24:38.596Z,18.06
2023-04-02T16:27:25.301Z,17.85
2023-04-02T16:30:08.648Z,17.58
2023-04-02T16:32:53.060Z,17.43
2023-04-02T16:38:17.664Z,17.06
2023-04-02T16:41:07.726Z,17.02
2023-04-02T16:43:48.688Z,16.96
2023-04-02T16:49:06.337Z,16.63
2023-04-02T16:51:44.950Z,16.41
2023-04-02T16:54:23.088Z,16.34
2023-04-02T16:57:15.780Z,16.31
2023-04-02T16:59:59.940Z,16.24
2023-04-02T17:02:41.252Z,16.22
2023-04-02T17:05:27.644Z,16.22
2023-04-02T17:08:11.271Z,16.07
2023-04-02T17:10:51.220Z,15.93
2023-04-02T17:13:25.946Z,15.81
2023-04-02T17:16:06.705Z,15.80
2023-04-02T17:18:35.426Z,15.64
2023-04-02T17:21:06.732Z,15.56
2023-04-02T17:23:55.983Z,15.43
2023-04-02T17:26:28.264Z,15.22
2023-04-02T17:28:58.742Z,15.16
2023-04-02T17:31:31.464Z,15.06
2023-04-02T17:33:58.522Z,15.02
2023-04-02T17:36:45.390Z,15.02
2023-04-02T17:39:21.642Z,14.85
2023-04-02T17:42:00.227Z,14.71
2023-04-02T17:44:53.632Z,14.63
2023-04-02T17:47:24.070Z,14.48
2023-04-02T17:50:22.644Z,14.50
2023-04-02T17:52:57.768Z,14.45
2023-04-02T17:55:35.970Z,14.47
2023-04-02T17:58:25.749Z,14.45
2023-04-02T18:01:11.326Z,14.48
2023-04-02T18:03:51.534Z,14.40
2023-04-02T18:06:23.285Z,14.33
2023-04-02T18:09:18.553Z,14.37
2023-04-02T18:12:02.605Z,14.24
2023-04-02T18:14:56.456Z,14.26
2023-04-02T18:17:35.208Z,14.24
2023-04-02T18:20:22.045Z,14.23
2023-04-02T18:23:00.145Z,14.16
2023-04-02T18:25:49.221Z,14.16
2023-04-02T18:28:40.447Z,14.07
2023-04-02T18:31:20.128Z,14.10
2023-04-02T18:34:23.298Z,14.16
2023-04-02T18:37:07.902Z,14.13
2023-04-02T18:39:51.521Z,14.09
2023-04-02T18:42:37.764Z,14.09
2023-04-02T18:45:18.247Z,14.13
2023-04-02T18:48:01.465Z,14.16
2023-04-02T18:50:31.795Z,14.09
2023-04-02T18:53:00.619Z,14.07
2023-04-02T18:55:31.189Z,14.14
2023-04-02T18:58:04.517Z,14.14
2023-04-02T19:00:35.210Z,14.13
2023-04-02T19:03:11.772Z,14.12
2023-04-02T19:05:48.301Z,14.10
2023-04-02T19:08:22.184Z,14.10
2023-04-02T19:10:54.526Z,14.05
2023-04-02T19:13:21.744Z,13.95
2023-04-02T19:16:29.657Z,13.95
2023-04-02T19:19:14.752Z,13.86
2023-04-02T19:22:08.355Z,13.86
2023-04-02T19:24:59.476Z,13.83
2023-04-02T19:27:36.950Z,13.78
2023-04-02T19:30:33.933Z,13.83
2023-04-02T19:33:22.122Z,13.79
2023-04-02T19:35:58.031Z,13.78
2023-04-02T19:38:49.988Z,13.80
2023-04-02T19:44:23.034Z,13.69
2023-04-02T19:46:52.152Z,13.73
2023-04-02T19:49:30.740Z,13.79
2023-04-02T19:52:00.515Z,13.80
2023-04-02T19:54:28.871Z,13.80
2023-04-02T19:56:56.484Z,13.79
2023-04-02T19:59:24.094Z,13.75
2023-04-02T20:01:51.595Z,13.69
2023-04-02T20:04:18.851Z,13.70
2023-04-02T20:06:47.124Z,13.66
2023-04-02T20:09:15.958Z,13.65
2023-04-02T20:11:43.257Z,13.63
2023-04-02T20:14:10.954Z,13.59
2023-04-02T20:16:38.714Z,13.61
2023-04-02T20:19:06.329Z,13.59
2023-04-02T20:21:36.288Z,13.56
2023-04-02T20:24:04.907Z,13.55
2023-04-02T20:26:34.062Z,13.55
2023-04-02T20:29:03.982Z,13.48
2023-04-02T20:31:31.519Z,13.46
2023-04-02T20:33:59.531Z,13.46
2023-04-02T20:36:27.804Z,13.44
2023-04-02T20:38:55.064Z,13.39
2023-04-02T20:41:22.057Z,13.37
2023-04-02T20:43:51.532Z,13.37
2023-04-02T20:46:18.781Z,13.37
2023-04-02T20:48:50.721Z,13.37
2023-04-02T20:51:19.915Z,13.35
2023-04-02T20:53:47.119Z,13.37
2023-04-02T20:56:16.823Z,13.37
2023-04-02T20:58:44.915Z,13.31
2023-04-02T21:01:19.136Z,13.32
2023-04-02T21:03:47.576Z,13.32
2023-04-02T21:06:17.319Z,13.29
2023-04-02T21:08:44.954Z,13.31
2023-04-02T21:11:12.593Z,13.28
2023-04-02T21:13:40.971Z,13.24
2023-04-02T21:16:16.915Z,13.24
2023-04-02T21:18:44.936Z,13.19
2023-04-02T21:21:14.939Z,13.18
2023-04-02T21:23:45.814Z,13.19
2023-04-02T21:26:16.369Z,13.18
2023-04-02T21:28:46.277Z,13.18
2023-04-02T21:31:17.561Z,13.14
2023-04-02T21:33:51.936Z,13.14
2023-04-02T21:36:24.117Z,13.10
2023-04-02T21:38:56.087Z,13.08
2023-04-02T21:41:26.156Z,13.03
2023-04-02T21:43:54.984Z,13.00
2023-04-02T21:46:30.787Z,12.95
2023-04-02T21:48:59.978Z,12.94
2023-04-02T21:51:33.543Z,12.88
2023-04-02T21:54:02.101Z,12.88
2023-04-02T21:56:35.015Z,12.90
2023-04-02T21:59:10.081Z,12.88
2023-04-02T22:01:41.805Z,12.88
2023-04-02T22:04:17.635Z,12.86
2023-04-02T22:06:45.904Z,12.84
2023-04-02T22:09:19.152Z,12.81
2023-04-02T22:11:50.997Z,12.81
2023-04-02T22:14:18.819Z,12.74
2023-04-02T22:16:49.948Z,12.74
2023-04-02T22:19:20.667Z,12.73
2023-04-02T22:21:48.161Z,12.68
2023-04-02T22:24:18.254Z,12.67
2023-04-02T22:26:46.243Z,12.61
2023-04-02T22:29:13.718Z,12.59
2023-04-02T22:31:40.740Z,12.53
2023-04-02T22:34:09.687Z,12.50
2023-04-02T22:36:37.282Z,12.45
2023-04-02T22:39:06.116Z,12.40
2023-04-02T22:41:43.697Z,12.33
2023-04-02T22:44:15.158Z,12.29
2023-04-02T22:46:42.447Z,12.23
2023-04-02T22:49:13.193Z,12.19
2023-04-02T22:51:40.216Z,12.15
2023-04-02T22:54:07.567Z,12.12
2023-04-02T22:56:35.827Z,12.11
2023-04-02T22:59:02.933Z,12.05
2023-04-02T23:01:33.405Z,12.05
2023-04-02T23:04:00.644Z,12.04
2023-04-02T23:06:29.548Z,12.05
2023-04-02T23:08:57.194Z,12.01
2023-04-02T23:11:27.607Z,12.01
2023-04-02T23:13:58.104Z,12.04
2023-04-02T23:16:28.118Z,12.04
2023-04-02T23:18:56.919Z,12.04
2023-04-02T23:21:25.617Z,12.04
2023-04-02T23:23:54.373Z,12.01
2023-04-02T23:26:24.031Z,12.01
2023-04-02T23:28:51.530Z,11.99
2023-04-02T23:31:22.431Z,11.98
2023-04-02T23:33:50.789Z,11.98
2023-04-02T23:36:22.994Z,11.99
2023-04-02T23:38:52.976Z,11.92
2023-04-02T23:41:20.308Z,11.86
2023-04-02T23:43:47.686Z,11.89
2023-04-02T23:46:15.128Z,11.86
2023-04-02T23:48:42.405Z,11.85
2023-04-02T23:51:11.070Z,11.86
2023-04-02T23:53:39.530Z,11.81
2023-04-02T23:56:09.188Z,11.79
2023-04-02T23:58:36.722Z,11.78
